<?xml version="1.0" encoding="UTF-8"?>
<gpx version="1.1" creator="Endomondo.com" xsi:schemaLocation="http://www.topografix.com/GPX/1/1 http://www.topografix.com/GPX/1/1/gpx.xsd http://www.garmin.com/xmlschemas/GpxExtensions/v3 http://www.garmin.com/xmlschemas/GpxExtensionsv3.xsd http://www.garmin.com/xmlschemas/TrackPointExtension/v1 http://www.garmin.com/xmlschemas/TrackPointExtensionv1.xsd" xmlns="http://www.topografix.com/GPX/1/1" xmlns:gpxtpx="http://www.garmin.com/xmlschemas/TrackPointExtension/v1" xmlns:gpxx="http://www.garmin.com/xmlschemas/GpxExtensions/v3" xmlns:xsi="http://www.w3.org/2001/XMLSchema-instance">
  <metadata>
    <author>
      <name>jose manuel</name>
      <email id="jmanuelguerrero" domain="gmail.com"/>
    </author>
    <link href="http://www.endomondo.com">
      <text>Endomondo</text>
    </link>
    <time>2016-08-24T09:15:59Z</time>
  </metadata>
  <trk>
    <src>http://www.endomondo.com/</src>
    <link href="https://www.endomondo.com/workouts/719120734/159315">
      <text>endomondo</text>
    </link>
    <type>HIKING</type>
    <trkseg>
      <trkpt lat="42.8743065" lon="-5.3738996">
        <time>2016-05-04T16:39:01Z</time>
      </trkpt>
      <trkpt lat="42.8743065" lon="-5.3738996">
        <ele>1527.7</ele>
        <time>2016-05-04T16:39:05Z</time>
      </trkpt>
      <trkpt lat="42.8742671" lon="-5.3739337">
        <ele>1570.0</ele>
        <time>2016-05-04T16:41:52Z</time>
      </trkpt>
      <trkpt lat="42.8743155" lon="-5.3739127">
        <ele>1571.2</ele>
        <time>2016-05-04T16:43:23Z</time>
      </trkpt>
      <trkpt lat="42.874367" lon="-5.3739377">
        <ele>1571.4</ele>
        <time>2016-05-04T16:43:28Z</time>
      </trkpt>
      <trkpt lat="42.8743169" lon="-5.3739345">
        <ele>1571.7</ele>
        <time>2016-05-04T16:43:40Z</time>
      </trkpt>
      <trkpt lat="42.8742816" lon="-5.3739727">
        <ele>1574.2</ele>
        <time>2016-05-04T16:47:04Z</time>
      </trkpt>
      <trkpt lat="42.874337" lon="-5.3739686">
        <ele>1574.0</ele>
        <time>2016-05-04T16:47:41Z</time>
      </trkpt>
      <trkpt lat="42.8742959" lon="-5.374011">
        <ele>1574.9</ele>
        <time>2016-05-04T16:49:05Z</time>
      </trkpt>
      <trkpt lat="42.874237" lon="-5.3740082">
        <ele>1575.3</ele>
        <time>2016-05-04T16:49:46Z</time>
      </trkpt>
      <trkpt lat="42.8741947" lon="-5.3740402">
        <ele>1575.3</ele>
        <time>2016-05-04T16:49:53Z</time>
      </trkpt>
      <trkpt lat="42.87424" lon="-5.3740288">
        <ele>1573.7</ele>
        <time>2016-05-04T16:50:29Z</time>
      </trkpt>
      <trkpt lat="42.8742852" lon="-5.3739929">
        <ele>1573.6</ele>
        <time>2016-05-04T16:50:34Z</time>
      </trkpt>
      <trkpt lat="42.8743373" lon="-5.3739747">
        <ele>1573.2</ele>
        <time>2016-05-04T16:50:40Z</time>
      </trkpt>
      <trkpt lat="42.8743272" lon="-5.3739129">
        <ele>1573.3</ele>
        <time>2016-05-04T16:50:50Z</time>
      </trkpt>
      <trkpt lat="42.8742782" lon="-5.3739509">
        <ele>1574.2</ele>
        <time>2016-05-04T16:52:42Z</time>
      </trkpt>
      <trkpt lat="42.8742065" lon="-5.3739304">
        <ele>1574.1</ele>
        <time>2016-05-04T16:52:47Z</time>
      </trkpt>
      <trkpt lat="42.8741257" lon="-5.3738891">
        <ele>1574.2</ele>
        <time>2016-05-04T16:52:49Z</time>
      </trkpt>
      <trkpt lat="42.8740762" lon="-5.373856">
        <ele>1574.2</ele>
        <time>2016-05-04T16:52:50Z</time>
      </trkpt>
      <trkpt lat="42.874006" lon="-5.3738002">
        <ele>1574.2</ele>
        <time>2016-05-04T16:52:51Z</time>
      </trkpt>
      <trkpt lat="42.8739001" lon="-5.3737285">
        <ele>1574.2</ele>
        <time>2016-05-04T16:52:53Z</time>
      </trkpt>
      <trkpt lat="42.8737351" lon="-5.3736856">
        <ele>1574.2</ele>
        <time>2016-05-04T16:52:56Z</time>
      </trkpt>
      <trkpt lat="42.873622" lon="-5.3736755">
        <ele>1574.2</ele>
        <time>2016-05-04T16:52:58Z</time>
      </trkpt>
      <trkpt lat="42.8735519" lon="-5.3736192">
        <ele>1574.2</ele>
        <time>2016-05-04T16:53:00Z</time>
      </trkpt>
      <trkpt lat="42.8735037" lon="-5.3735874">
        <ele>1574.2</ele>
        <time>2016-05-04T16:53:01Z</time>
      </trkpt>
      <trkpt lat="42.8734584" lon="-5.3735459">
        <ele>1574.2</ele>
        <time>2016-05-04T16:53:02Z</time>
      </trkpt>
      <trkpt lat="42.8733341" lon="-5.3734426">
        <ele>1574.2</ele>
        <time>2016-05-04T16:53:05Z</time>
      </trkpt>
      <trkpt lat="42.8732357" lon="-5.3732672">
        <ele>1574.3</ele>
        <time>2016-05-04T16:53:08Z</time>
      </trkpt>
      <trkpt lat="42.8731728" lon="-5.3730583">
        <ele>1574.3</ele>
        <time>2016-05-04T16:53:11Z</time>
      </trkpt>
      <trkpt lat="42.8729968" lon="-5.3730815">
        <ele>1574.2</ele>
        <time>2016-05-04T16:53:14Z</time>
      </trkpt>
      <trkpt lat="42.8728674" lon="-5.3731262">
        <ele>1574.2</ele>
        <time>2016-05-04T16:53:16Z</time>
      </trkpt>
      <trkpt lat="42.8727562" lon="-5.3732438">
        <ele>1574.1</ele>
        <time>2016-05-04T16:53:18Z</time>
      </trkpt>
      <trkpt lat="42.8726168" lon="-5.3734403">
        <ele>1574.0</ele>
        <time>2016-05-04T16:53:21Z</time>
      </trkpt>
      <trkpt lat="42.8725185" lon="-5.3735738">
        <ele>1573.9</ele>
        <time>2016-05-04T16:53:23Z</time>
      </trkpt>
      <trkpt lat="42.8723587" lon="-5.3737025">
        <ele>1573.8</ele>
        <time>2016-05-04T16:53:26Z</time>
      </trkpt>
      <trkpt lat="42.8722164" lon="-5.373654">
        <ele>1573.4</ele>
        <time>2016-05-04T16:53:29Z</time>
      </trkpt>
      <trkpt lat="42.872155" lon="-5.3734738">
        <ele>1573.1</ele>
        <time>2016-05-04T16:53:32Z</time>
      </trkpt>
      <trkpt lat="42.8721579" lon="-5.3732802">
        <ele>1572.7</ele>
        <time>2016-05-04T16:53:34Z</time>
      </trkpt>
      <trkpt lat="42.8722286" lon="-5.3730858">
        <ele>1572.0</ele>
        <time>2016-05-04T16:53:36Z</time>
      </trkpt>
      <trkpt lat="42.872304" lon="-5.3729116">
        <ele>1571.0</ele>
        <time>2016-05-04T16:53:38Z</time>
      </trkpt>
      <trkpt lat="42.8722312" lon="-5.3726773">
        <ele>1569.0</ele>
        <time>2016-05-04T16:53:41Z</time>
      </trkpt>
      <trkpt lat="42.8720496" lon="-5.3726189">
        <ele>1568.1</ele>
        <time>2016-05-04T16:53:44Z</time>
      </trkpt>
      <trkpt lat="42.871953" lon="-5.3726351">
        <ele>1567.7</ele>
        <time>2016-05-04T16:53:46Z</time>
      </trkpt>
      <trkpt lat="42.8718355" lon="-5.3726949">
        <ele>1567.5</ele>
        <time>2016-05-04T16:53:48Z</time>
      </trkpt>
      <trkpt lat="42.8717" lon="-5.3728483">
        <ele>1567.2</ele>
        <time>2016-05-04T16:53:50Z</time>
      </trkpt>
      <trkpt lat="42.8716046" lon="-5.3730211">
        <ele>1566.6</ele>
        <time>2016-05-04T16:53:52Z</time>
      </trkpt>
      <trkpt lat="42.8715362" lon="-5.3731999">
        <ele>1566.3</ele>
        <time>2016-05-04T16:53:54Z</time>
      </trkpt>
      <trkpt lat="42.8714468" lon="-5.3734291">
        <ele>1565.6</ele>
        <time>2016-05-04T16:53:56Z</time>
      </trkpt>
      <trkpt lat="42.8714016" lon="-5.373669">
        <ele>1565.3</ele>
        <time>2016-05-04T16:53:58Z</time>
      </trkpt>
      <trkpt lat="42.8713627" lon="-5.3738781">
        <ele>1565.0</ele>
        <time>2016-05-04T16:54:00Z</time>
      </trkpt>
      <trkpt lat="42.8713109" lon="-5.3741216">
        <ele>1564.8</ele>
        <time>2016-05-04T16:54:02Z</time>
      </trkpt>
      <trkpt lat="42.8712816" lon="-5.3743662">
        <ele>1564.7</ele>
        <time>2016-05-04T16:54:04Z</time>
      </trkpt>
      <trkpt lat="42.8712304" lon="-5.3745865">
        <ele>1564.6</ele>
        <time>2016-05-04T16:54:06Z</time>
      </trkpt>
      <trkpt lat="42.8711693" lon="-5.3748056">
        <ele>1564.4</ele>
        <time>2016-05-04T16:54:08Z</time>
      </trkpt>
      <trkpt lat="42.8711213" lon="-5.3750257">
        <ele>1564.3</ele>
        <time>2016-05-04T16:54:10Z</time>
      </trkpt>
      <trkpt lat="42.8710422" lon="-5.3751941">
        <ele>1563.6</ele>
        <time>2016-05-04T16:54:12Z</time>
      </trkpt>
      <trkpt lat="42.870875" lon="-5.3752735">
        <ele>1562.5</ele>
        <time>2016-05-04T16:54:15Z</time>
      </trkpt>
      <trkpt lat="42.8707699" lon="-5.3752314">
        <ele>1561.5</ele>
        <time>2016-05-04T16:54:17Z</time>
      </trkpt>
      <trkpt lat="42.8707263" lon="-5.3751899">
        <ele>1561.5</ele>
        <time>2016-05-04T16:54:18Z</time>
      </trkpt>
      <trkpt lat="42.8706938" lon="-5.375127">
        <ele>1561.5</ele>
        <time>2016-05-04T16:54:19Z</time>
      </trkpt>
      <trkpt lat="42.870665" lon="-5.3750794">
        <ele>1561.5</ele>
        <time>2016-05-04T16:54:20Z</time>
      </trkpt>
      <trkpt lat="42.8706463" lon="-5.3750201">
        <ele>1561.5</ele>
        <time>2016-05-04T16:54:21Z</time>
      </trkpt>
      <trkpt lat="42.87063" lon="-5.3747944">
        <ele>1561.2</ele>
        <time>2016-05-04T16:54:24Z</time>
      </trkpt>
      <trkpt lat="42.8707256" lon="-5.3745575">
        <ele>1561.1</ele>
        <time>2016-05-04T16:54:27Z</time>
      </trkpt>
      <trkpt lat="42.8707751" lon="-5.3743454">
        <ele>1560.6</ele>
        <time>2016-05-04T16:54:30Z</time>
      </trkpt>
      <trkpt lat="42.8707585" lon="-5.3741224">
        <ele>1560.2</ele>
        <time>2016-05-04T16:54:33Z</time>
      </trkpt>
      <trkpt lat="42.8707193" lon="-5.3739262">
        <ele>1560.0</ele>
        <time>2016-05-04T16:54:36Z</time>
      </trkpt>
      <trkpt lat="42.8707122" lon="-5.3737">
        <ele>1559.9</ele>
        <time>2016-05-04T16:54:39Z</time>
      </trkpt>
      <trkpt lat="42.8707973" lon="-5.3734844">
        <ele>1559.9</ele>
        <time>2016-05-04T16:54:42Z</time>
      </trkpt>
      <trkpt lat="42.8708592" lon="-5.3732604">
        <ele>1559.9</ele>
        <time>2016-05-04T16:54:45Z</time>
      </trkpt>
      <trkpt lat="42.8707409" lon="-5.3731651">
        <ele>1559.9</ele>
        <time>2016-05-04T16:54:48Z</time>
      </trkpt>
      <trkpt lat="42.8706341" lon="-5.3732388">
        <ele>1559.9</ele>
        <time>2016-05-04T16:54:50Z</time>
      </trkpt>
      <trkpt lat="42.8705443" lon="-5.3734505">
        <ele>1560.0</ele>
        <time>2016-05-04T16:54:52Z</time>
      </trkpt>
      <trkpt lat="42.8705187" lon="-5.3737347">
        <ele>1560.1</ele>
        <time>2016-05-04T16:54:54Z</time>
      </trkpt>
      <trkpt lat="42.8705726" lon="-5.3740089">
        <ele>1560.2</ele>
        <time>2016-05-04T16:54:56Z</time>
      </trkpt>
      <trkpt lat="42.8707036" lon="-5.3742627">
        <ele>1560.4</ele>
        <time>2016-05-04T16:54:58Z</time>
      </trkpt>
      <trkpt lat="42.8709185" lon="-5.3743972">
        <ele>1560.5</ele>
        <time>2016-05-04T16:55:00Z</time>
      </trkpt>
      <trkpt lat="42.8711143" lon="-5.374357">
        <ele>1560.5</ele>
        <time>2016-05-04T16:55:02Z</time>
      </trkpt>
      <trkpt lat="42.87125" lon="-5.3741933">
        <ele>1560.5</ele>
        <time>2016-05-04T16:55:04Z</time>
      </trkpt>
      <trkpt lat="42.8712932" lon="-5.3739418">
        <ele>1560.5</ele>
        <time>2016-05-04T16:55:07Z</time>
      </trkpt>
      <trkpt lat="42.8712943" lon="-5.3737117">
        <ele>1561.1</ele>
        <time>2016-05-04T16:55:10Z</time>
      </trkpt>
      <trkpt lat="42.8712473" lon="-5.3735094">
        <ele>1562.2</ele>
        <time>2016-05-04T16:55:13Z</time>
      </trkpt>
      <trkpt lat="42.8712475" lon="-5.3733075">
        <ele>1562.6</ele>
        <time>2016-05-04T16:55:16Z</time>
      </trkpt>
      <trkpt lat="42.8711199" lon="-5.3731773">
        <ele>1563.1</ele>
        <time>2016-05-04T16:55:20Z</time>
      </trkpt>
      <trkpt lat="42.8710234" lon="-5.3732665">
        <ele>1563.2</ele>
        <time>2016-05-04T16:55:22Z</time>
      </trkpt>
      <trkpt lat="42.8709496" lon="-5.3734386">
        <ele>1563.5</ele>
        <time>2016-05-04T16:55:24Z</time>
      </trkpt>
      <trkpt lat="42.8709018" lon="-5.3736664">
        <ele>1564.0</ele>
        <time>2016-05-04T16:55:26Z</time>
      </trkpt>
      <trkpt lat="42.8708592" lon="-5.3739243">
        <ele>1564.3</ele>
        <time>2016-05-04T16:55:28Z</time>
      </trkpt>
      <trkpt lat="42.8708211" lon="-5.3741958">
        <ele>1564.5</ele>
        <time>2016-05-04T16:55:30Z</time>
      </trkpt>
      <trkpt lat="42.8707692" lon="-5.3744472">
        <ele>1564.7</ele>
        <time>2016-05-04T16:55:32Z</time>
      </trkpt>
      <trkpt lat="42.8707079" lon="-5.3746957">
        <ele>1565.0</ele>
        <time>2016-05-04T16:55:34Z</time>
      </trkpt>
      <trkpt lat="42.870636" lon="-5.3748911">
        <ele>1565.2</ele>
        <time>2016-05-04T16:55:36Z</time>
      </trkpt>
      <trkpt lat="42.87055" lon="-5.3750761">
        <ele>1566.1</ele>
        <time>2016-05-04T16:55:38Z</time>
      </trkpt>
      <trkpt lat="42.8704576" lon="-5.3753205">
        <ele>1566.5</ele>
        <time>2016-05-04T16:55:40Z</time>
      </trkpt>
      <trkpt lat="42.8703764" lon="-5.3755393">
        <ele>1567.0</ele>
        <time>2016-05-04T16:55:42Z</time>
      </trkpt>
      <trkpt lat="42.8703133" lon="-5.3757509">
        <ele>1567.4</ele>
        <time>2016-05-04T16:55:44Z</time>
      </trkpt>
      <trkpt lat="42.8702473" lon="-5.3759709">
        <ele>1567.6</ele>
        <time>2016-05-04T16:55:46Z</time>
      </trkpt>
      <trkpt lat="42.8701706" lon="-5.376176">
        <ele>1567.8</ele>
        <time>2016-05-04T16:55:48Z</time>
      </trkpt>
      <trkpt lat="42.8700727" lon="-5.3764099">
        <ele>1567.9</ele>
        <time>2016-05-04T16:55:50Z</time>
      </trkpt>
      <trkpt lat="42.8700206" lon="-5.3766266">
        <ele>1568.0</ele>
        <time>2016-05-04T16:55:52Z</time>
      </trkpt>
      <trkpt lat="42.8699964" lon="-5.3768944">
        <ele>1568.0</ele>
        <time>2016-05-04T16:55:54Z</time>
      </trkpt>
      <trkpt lat="42.8699748" lon="-5.3771451">
        <ele>1568.1</ele>
        <time>2016-05-04T16:55:56Z</time>
      </trkpt>
      <trkpt lat="42.8698792" lon="-5.3773607">
        <ele>1568.4</ele>
        <time>2016-05-04T16:55:59Z</time>
      </trkpt>
      <trkpt lat="42.8697182" lon="-5.3773951">
        <ele>1568.6</ele>
        <time>2016-05-04T16:56:01Z</time>
      </trkpt>
      <trkpt lat="42.8694775" lon="-5.3773191">
        <ele>1570.0</ele>
        <time>2016-05-04T16:56:05Z</time>
      </trkpt>
      <trkpt lat="42.8693679" lon="-5.3773198">
        <ele>1571.4</ele>
        <time>2016-05-04T16:56:07Z</time>
      </trkpt>
      <trkpt lat="42.869257" lon="-5.3772783">
        <ele>1573.1</ele>
        <time>2016-05-04T16:56:09Z</time>
      </trkpt>
      <trkpt lat="42.8692074" lon="-5.3772566">
        <ele>1573.1</ele>
        <time>2016-05-04T16:56:10Z</time>
      </trkpt>
      <trkpt lat="42.8691266" lon="-5.3771968">
        <ele>1573.1</ele>
        <time>2016-05-04T16:56:12Z</time>
      </trkpt>
      <trkpt lat="42.869039" lon="-5.3771544">
        <ele>1573.9</ele>
        <time>2016-05-04T16:56:14Z</time>
      </trkpt>
      <trkpt lat="42.8689281" lon="-5.377116">
        <ele>1574.9</ele>
        <time>2016-05-04T16:56:16Z</time>
      </trkpt>
      <trkpt lat="42.8687763" lon="-5.3771442">
        <ele>1576.0</ele>
        <time>2016-05-04T16:56:18Z</time>
      </trkpt>
      <trkpt lat="42.8686373" lon="-5.3772682">
        <ele>1576.9</ele>
        <time>2016-05-04T16:56:20Z</time>
      </trkpt>
      <trkpt lat="42.8685225" lon="-5.3774455">
        <ele>1577.8</ele>
        <time>2016-05-04T16:56:22Z</time>
      </trkpt>
      <trkpt lat="42.8684099" lon="-5.3775751">
        <ele>1578.9</ele>
        <time>2016-05-04T16:56:24Z</time>
      </trkpt>
      <trkpt lat="42.8682071" lon="-5.3776125">
        <ele>1580.4</ele>
        <time>2016-05-04T16:56:27Z</time>
      </trkpt>
      <trkpt lat="42.8680974" lon="-5.3775676">
        <ele>1582.7</ele>
        <time>2016-05-04T16:56:29Z</time>
      </trkpt>
      <trkpt lat="42.8680617" lon="-5.3775205">
        <ele>1582.7</ele>
        <time>2016-05-04T16:56:30Z</time>
      </trkpt>
      <trkpt lat="42.8680385" lon="-5.377446">
        <ele>1582.7</ele>
        <time>2016-05-04T16:56:31Z</time>
      </trkpt>
      <trkpt lat="42.8680128" lon="-5.3773912">
        <ele>1582.7</ele>
        <time>2016-05-04T16:56:32Z</time>
      </trkpt>
      <trkpt lat="42.8680109" lon="-5.3773005">
        <ele>1582.7</ele>
        <time>2016-05-04T16:56:33Z</time>
      </trkpt>
      <trkpt lat="42.8680696" lon="-5.3771152">
        <ele>1584.3</ele>
        <time>2016-05-04T16:56:35Z</time>
      </trkpt>
      <trkpt lat="42.8682127" lon="-5.3769589">
        <ele>1587.0</ele>
        <time>2016-05-04T16:56:37Z</time>
      </trkpt>
      <trkpt lat="42.8683866" lon="-5.3769033">
        <ele>1588.0</ele>
        <time>2016-05-04T16:56:39Z</time>
      </trkpt>
      <trkpt lat="42.8686038" lon="-5.3769788">
        <ele>1588.3</ele>
        <time>2016-05-04T16:56:41Z</time>
      </trkpt>
      <trkpt lat="42.868801" lon="-5.377176">
        <ele>1588.3</ele>
        <time>2016-05-04T16:56:43Z</time>
      </trkpt>
      <trkpt lat="42.8689166" lon="-5.3774482">
        <ele>1588.3</ele>
        <time>2016-05-04T16:56:45Z</time>
      </trkpt>
      <trkpt lat="42.8689624" lon="-5.3777293">
        <ele>1588.3</ele>
        <time>2016-05-04T16:56:47Z</time>
      </trkpt>
      <trkpt lat="42.8689633" lon="-5.3779877">
        <ele>1588.3</ele>
        <time>2016-05-04T16:56:49Z</time>
      </trkpt>
      <trkpt lat="42.8690003" lon="-5.378246">
        <ele>1588.3</ele>
        <time>2016-05-04T16:56:51Z</time>
      </trkpt>
      <trkpt lat="42.8689988" lon="-5.3785164">
        <ele>1588.3</ele>
        <time>2016-05-04T16:56:53Z</time>
      </trkpt>
      <trkpt lat="42.8689145" lon="-5.378746">
        <ele>1588.4</ele>
        <time>2016-05-04T16:56:55Z</time>
      </trkpt>
      <trkpt lat="42.8687787" lon="-5.3789189">
        <ele>1588.7</ele>
        <time>2016-05-04T16:56:57Z</time>
      </trkpt>
      <trkpt lat="42.8686404" lon="-5.3789824">
        <ele>1589.4</ele>
        <time>2016-05-04T16:56:59Z</time>
      </trkpt>
      <trkpt lat="42.8684728" lon="-5.3789071">
        <ele>1590.4</ele>
        <time>2016-05-04T16:57:02Z</time>
      </trkpt>
      <trkpt lat="42.8684217" lon="-5.3787009">
        <ele>1592.1</ele>
        <time>2016-05-04T16:57:05Z</time>
      </trkpt>
      <trkpt lat="42.8684941" lon="-5.378546">
        <ele>1592.7</ele>
        <time>2016-05-04T16:57:07Z</time>
      </trkpt>
      <trkpt lat="42.8686164" lon="-5.3784136">
        <ele>1593.1</ele>
        <time>2016-05-04T16:57:09Z</time>
      </trkpt>
      <trkpt lat="42.8687046" lon="-5.3782575">
        <ele>1593.7</ele>
        <time>2016-05-04T16:57:11Z</time>
      </trkpt>
      <trkpt lat="42.8687474" lon="-5.378077">
        <ele>1594.5</ele>
        <time>2016-05-04T16:57:13Z</time>
      </trkpt>
      <trkpt lat="42.8687606" lon="-5.3778276">
        <ele>1594.8</ele>
        <time>2016-05-04T16:57:16Z</time>
      </trkpt>
      <trkpt lat="42.8687019" lon="-5.3776228">
        <ele>1594.9</ele>
        <time>2016-05-04T16:57:19Z</time>
      </trkpt>
      <trkpt lat="42.8686103" lon="-5.3774381">
        <ele>1594.2</ele>
        <time>2016-05-04T16:57:22Z</time>
      </trkpt>
      <trkpt lat="42.8684499" lon="-5.3772932">
        <ele>1593.6</ele>
        <time>2016-05-04T16:57:25Z</time>
      </trkpt>
      <trkpt lat="42.8683436" lon="-5.377242">
        <ele>1593.0</ele>
        <time>2016-05-04T16:57:27Z</time>
      </trkpt>
      <trkpt lat="42.8682119" lon="-5.3772585">
        <ele>1592.2</ele>
        <time>2016-05-04T16:57:29Z</time>
      </trkpt>
      <trkpt lat="42.867946" lon="-5.3773687">
        <ele>1590.2</ele>
        <time>2016-05-04T16:57:33Z</time>
      </trkpt>
      <trkpt lat="42.8678149" lon="-5.377479">
        <ele>1589.4</ele>
        <time>2016-05-04T16:57:35Z</time>
      </trkpt>
      <trkpt lat="42.8677188" lon="-5.377642">
        <ele>1589.0</ele>
        <time>2016-05-04T16:57:37Z</time>
      </trkpt>
      <trkpt lat="42.8676531" lon="-5.3778027">
        <ele>1588.8</ele>
        <time>2016-05-04T16:57:39Z</time>
      </trkpt>
      <trkpt lat="42.8675999" lon="-5.3780037">
        <ele>1588.8</ele>
        <time>2016-05-04T16:57:41Z</time>
      </trkpt>
      <trkpt lat="42.8675765" lon="-5.3782066">
        <ele>1588.8</ele>
        <time>2016-05-04T16:57:43Z</time>
      </trkpt>
      <trkpt lat="42.8675712" lon="-5.3784835">
        <ele>1588.8</ele>
        <time>2016-05-04T16:57:46Z</time>
      </trkpt>
      <trkpt lat="42.8676024" lon="-5.3786835">
        <ele>1588.8</ele>
        <time>2016-05-04T16:57:48Z</time>
      </trkpt>
      <trkpt lat="42.8676197" lon="-5.3789223">
        <ele>1588.8</ele>
        <time>2016-05-04T16:57:50Z</time>
      </trkpt>
      <trkpt lat="42.8675844" lon="-5.3791418">
        <ele>1588.8</ele>
        <time>2016-05-04T16:57:52Z</time>
      </trkpt>
      <trkpt lat="42.8674744" lon="-5.3793268">
        <ele>1588.3</ele>
        <time>2016-05-04T16:57:55Z</time>
      </trkpt>
      <trkpt lat="42.867292" lon="-5.3793642">
        <ele>1585.6</ele>
        <time>2016-05-04T16:57:58Z</time>
      </trkpt>
      <trkpt lat="42.8672202" lon="-5.3791506">
        <ele>1580.8</ele>
        <time>2016-05-04T16:58:01Z</time>
      </trkpt>
      <trkpt lat="42.8672606" lon="-5.378973">
        <ele>1577.2</ele>
        <time>2016-05-04T16:58:03Z</time>
      </trkpt>
      <trkpt lat="42.8673137" lon="-5.3786981">
        <ele>1571.8</ele>
        <time>2016-05-04T16:58:06Z</time>
      </trkpt>
      <trkpt lat="42.8672867" lon="-5.3784949">
        <ele>1568.2</ele>
        <time>2016-05-04T16:58:09Z</time>
      </trkpt>
      <trkpt lat="42.8672483" lon="-5.3783066">
        <ele>1563.6</ele>
        <time>2016-05-04T16:58:12Z</time>
      </trkpt>
      <trkpt lat="42.8671918" lon="-5.3781384">
        <ele>1559.0</ele>
        <time>2016-05-04T16:58:15Z</time>
      </trkpt>
      <trkpt lat="42.8670577" lon="-5.3780053">
        <ele>1557.3</ele>
        <time>2016-05-04T16:58:18Z</time>
      </trkpt>
      <trkpt lat="42.8669645" lon="-5.377798">
        <ele>1552.9</ele>
        <time>2016-05-04T16:58:21Z</time>
      </trkpt>
      <trkpt lat="42.8668454" lon="-5.3775928">
        <ele>1548.3</ele>
        <time>2016-05-04T16:58:24Z</time>
      </trkpt>
      <trkpt lat="42.866748" lon="-5.3773879">
        <ele>1543.5</ele>
        <time>2016-05-04T16:58:27Z</time>
      </trkpt>
      <trkpt lat="42.866636" lon="-5.3772009">
        <ele>1538.2</ele>
        <time>2016-05-04T16:58:30Z</time>
      </trkpt>
      <trkpt lat="42.8665614" lon="-5.3770479">
        <ele>1535.7</ele>
        <time>2016-05-04T16:58:32Z</time>
      </trkpt>
      <trkpt lat="42.8664614" lon="-5.3768486">
        <ele>1531.6</ele>
        <time>2016-05-04T16:58:35Z</time>
      </trkpt>
      <trkpt lat="42.8663834" lon="-5.3766295">
        <ele>1524.4</ele>
        <time>2016-05-04T16:58:38Z</time>
      </trkpt>
      <trkpt lat="42.8663138" lon="-5.3764711">
        <ele>1521.9</ele>
        <time>2016-05-04T16:58:40Z</time>
      </trkpt>
      <trkpt lat="42.8662205" lon="-5.3762099">
        <ele>1517.1</ele>
        <time>2016-05-04T16:58:43Z</time>
      </trkpt>
      <trkpt lat="42.8661625" lon="-5.3760081">
        <ele>1513.5</ele>
        <time>2016-05-04T16:58:45Z</time>
      </trkpt>
      <trkpt lat="42.8661189" lon="-5.3758041">
        <ele>1508.8</ele>
        <time>2016-05-04T16:58:47Z</time>
      </trkpt>
      <trkpt lat="42.8660749" lon="-5.3756114">
        <ele>1503.5</ele>
        <time>2016-05-04T16:58:49Z</time>
      </trkpt>
      <trkpt lat="42.8660307" lon="-5.3754139">
        <ele>1498.1</ele>
        <time>2016-05-04T16:58:51Z</time>
      </trkpt>
      <trkpt lat="42.8659884" lon="-5.3751941">
        <ele>1493.8</ele>
        <time>2016-05-04T16:58:53Z</time>
      </trkpt>
      <trkpt lat="42.8659518" lon="-5.3750042">
        <ele>1490.6</ele>
        <time>2016-05-04T16:58:55Z</time>
      </trkpt>
      <trkpt lat="42.8658963" lon="-5.3748056">
        <ele>1488.0</ele>
        <time>2016-05-04T16:58:58Z</time>
      </trkpt>
      <trkpt lat="42.8658559" lon="-5.3746262">
        <ele>1484.9</ele>
        <time>2016-05-04T16:59:00Z</time>
      </trkpt>
      <trkpt lat="42.8658172" lon="-5.3743757">
        <ele>1479.5</ele>
        <time>2016-05-04T16:59:03Z</time>
      </trkpt>
      <trkpt lat="42.8657861" lon="-5.3741446">
        <ele>1476.5</ele>
        <time>2016-05-04T16:59:06Z</time>
      </trkpt>
      <trkpt lat="42.8657519" lon="-5.3738794">
        <ele>1472.7</ele>
        <time>2016-05-04T16:59:09Z</time>
      </trkpt>
      <trkpt lat="42.8657006" lon="-5.3736604">
        <ele>1469.1</ele>
        <time>2016-05-04T16:59:12Z</time>
      </trkpt>
      <trkpt lat="42.8656685" lon="-5.3734121">
        <ele>1464.8</ele>
        <time>2016-05-04T16:59:15Z</time>
      </trkpt>
      <trkpt lat="42.8656399" lon="-5.3731448">
        <ele>1462.5</ele>
        <time>2016-05-04T16:59:18Z</time>
      </trkpt>
      <trkpt lat="42.8656154" lon="-5.3728797">
        <ele>1460.6</ele>
        <time>2016-05-04T16:59:21Z</time>
      </trkpt>
      <trkpt lat="42.865567" lon="-5.3726635">
        <ele>1457.2</ele>
        <time>2016-05-04T16:59:24Z</time>
      </trkpt>
      <trkpt lat="42.8654904" lon="-5.3724829">
        <ele>1456.4</ele>
        <time>2016-05-04T16:59:26Z</time>
      </trkpt>
      <trkpt lat="42.865423" lon="-5.3722976">
        <ele>1456.0</ele>
        <time>2016-05-04T16:59:28Z</time>
      </trkpt>
      <trkpt lat="42.8653544" lon="-5.37212">
        <ele>1455.3</ele>
        <time>2016-05-04T16:59:30Z</time>
      </trkpt>
      <trkpt lat="42.8652909" lon="-5.3718828">
        <ele>1453.2</ele>
        <time>2016-05-04T16:59:33Z</time>
      </trkpt>
      <trkpt lat="42.8653401" lon="-5.371626">
        <ele>1452.6</ele>
        <time>2016-05-04T16:59:36Z</time>
      </trkpt>
      <trkpt lat="42.865379" lon="-5.3714407">
        <ele>1452.3</ele>
        <time>2016-05-04T16:59:38Z</time>
      </trkpt>
      <trkpt lat="42.8653518" lon="-5.3712565">
        <ele>1452.0</ele>
        <time>2016-05-04T16:59:40Z</time>
      </trkpt>
      <trkpt lat="42.8651639" lon="-5.3712479">
        <ele>1451.7</ele>
        <time>2016-05-04T16:59:43Z</time>
      </trkpt>
      <trkpt lat="42.8650432" lon="-5.3713162">
        <ele>1451.2</ele>
        <time>2016-05-04T16:59:45Z</time>
      </trkpt>
      <trkpt lat="42.8649407" lon="-5.3714843">
        <ele>1449.9</ele>
        <time>2016-05-04T16:59:47Z</time>
      </trkpt>
      <trkpt lat="42.8648827" lon="-5.371753">
        <ele>1448.3</ele>
        <time>2016-05-04T16:59:49Z</time>
      </trkpt>
      <trkpt lat="42.8648401" lon="-5.372002">
        <ele>1447.5</ele>
        <time>2016-05-04T16:59:51Z</time>
      </trkpt>
      <trkpt lat="42.864784" lon="-5.3722358">
        <ele>1447.0</ele>
        <time>2016-05-04T16:59:53Z</time>
      </trkpt>
      <trkpt lat="42.8646808" lon="-5.372429">
        <ele>1446.7</ele>
        <time>2016-05-04T16:59:55Z</time>
      </trkpt>
      <trkpt lat="42.8645459" lon="-5.3725564">
        <ele>1446.4</ele>
        <time>2016-05-04T16:59:57Z</time>
      </trkpt>
      <trkpt lat="42.864413" lon="-5.3726116">
        <ele>1446.1</ele>
        <time>2016-05-04T16:59:59Z</time>
      </trkpt>
      <trkpt lat="42.8642864" lon="-5.372567">
        <ele>1445.7</ele>
        <time>2016-05-04T17:00:01Z</time>
      </trkpt>
      <trkpt lat="42.8642455" lon="-5.3725293">
        <ele>1445.7</ele>
        <time>2016-05-04T17:00:02Z</time>
      </trkpt>
      <trkpt lat="42.8642149" lon="-5.3724703">
        <ele>1445.7</ele>
        <time>2016-05-04T17:00:03Z</time>
      </trkpt>
      <trkpt lat="42.8641765" lon="-5.3724307">
        <ele>1445.7</ele>
        <time>2016-05-04T17:00:04Z</time>
      </trkpt>
      <trkpt lat="42.8641415" lon="-5.3723659">
        <ele>1445.7</ele>
        <time>2016-05-04T17:00:05Z</time>
      </trkpt>
      <trkpt lat="42.8640548" lon="-5.3721479">
        <ele>1445.3</ele>
        <time>2016-05-04T17:00:08Z</time>
      </trkpt>
      <trkpt lat="42.8639942" lon="-5.3719321">
        <ele>1445.0</ele>
        <time>2016-05-04T17:00:11Z</time>
      </trkpt>
      <trkpt lat="42.8639658" lon="-5.3717503">
        <ele>1444.3</ele>
        <time>2016-05-04T17:00:13Z</time>
      </trkpt>
      <trkpt lat="42.8639366" lon="-5.371504">
        <ele>1443.5</ele>
        <time>2016-05-04T17:00:16Z</time>
      </trkpt>
      <trkpt lat="42.8639509" lon="-5.3712179">
        <ele>1443.2</ele>
        <time>2016-05-04T17:00:19Z</time>
      </trkpt>
      <trkpt lat="42.8639843" lon="-5.3710048">
        <ele>1443.0</ele>
        <time>2016-05-04T17:00:21Z</time>
      </trkpt>
      <trkpt lat="42.8640549" lon="-5.3708041">
        <ele>1442.8</ele>
        <time>2016-05-04T17:00:23Z</time>
      </trkpt>
      <trkpt lat="42.8641195" lon="-5.3705885">
        <ele>1442.5</ele>
        <time>2016-05-04T17:00:25Z</time>
      </trkpt>
      <trkpt lat="42.8641838" lon="-5.3703749">
        <ele>1441.3</ele>
        <time>2016-05-04T17:00:27Z</time>
      </trkpt>
      <trkpt lat="42.8642637" lon="-5.3701793">
        <ele>1440.2</ele>
        <time>2016-05-04T17:00:29Z</time>
      </trkpt>
      <trkpt lat="42.8643146" lon="-5.3699731">
        <ele>1439.8</ele>
        <time>2016-05-04T17:00:31Z</time>
      </trkpt>
      <trkpt lat="42.8643322" lon="-5.3697713">
        <ele>1439.5</ele>
        <time>2016-05-04T17:00:33Z</time>
      </trkpt>
      <trkpt lat="42.864342" lon="-5.3695839">
        <ele>1439.2</ele>
        <time>2016-05-04T17:00:35Z</time>
      </trkpt>
      <trkpt lat="42.8643178" lon="-5.3693275">
        <ele>1438.3</ele>
        <time>2016-05-04T17:00:38Z</time>
      </trkpt>
      <trkpt lat="42.8642676" lon="-5.3691137">
        <ele>1437.1</ele>
        <time>2016-05-04T17:00:41Z</time>
      </trkpt>
      <trkpt lat="42.8642476" lon="-5.3688584">
        <ele>1436.7</ele>
        <time>2016-05-04T17:00:44Z</time>
      </trkpt>
      <trkpt lat="42.8642049" lon="-5.3686697">
        <ele>1436.5</ele>
        <time>2016-05-04T17:00:46Z</time>
      </trkpt>
      <trkpt lat="42.8641672" lon="-5.3684798">
        <ele>1436.1</ele>
        <time>2016-05-04T17:00:48Z</time>
      </trkpt>
      <trkpt lat="42.8641436" lon="-5.3682422">
        <ele>1434.9</ele>
        <time>2016-05-04T17:00:51Z</time>
      </trkpt>
      <trkpt lat="42.864117" lon="-5.3679809">
        <ele>1433.3</ele>
        <time>2016-05-04T17:00:54Z</time>
      </trkpt>
      <trkpt lat="42.8641136" lon="-5.3677805">
        <ele>1432.3</ele>
        <time>2016-05-04T17:00:56Z</time>
      </trkpt>
      <trkpt lat="42.864095" lon="-5.3675962">
        <ele>1431.8</ele>
        <time>2016-05-04T17:00:58Z</time>
      </trkpt>
      <trkpt lat="42.8640648" lon="-5.3673997">
        <ele>1431.3</ele>
        <time>2016-05-04T17:01:00Z</time>
      </trkpt>
      <trkpt lat="42.8640445" lon="-5.3671888">
        <ele>1430.4</ele>
        <time>2016-05-04T17:01:02Z</time>
      </trkpt>
      <trkpt lat="42.8640024" lon="-5.3669871">
        <ele>1429.3</ele>
        <time>2016-05-04T17:01:04Z</time>
      </trkpt>
      <trkpt lat="42.8639901" lon="-5.366788">
        <ele>1428.4</ele>
        <time>2016-05-04T17:01:06Z</time>
      </trkpt>
      <trkpt lat="42.8639679" lon="-5.3665839">
        <ele>1427.2</ele>
        <time>2016-05-04T17:01:08Z</time>
      </trkpt>
      <trkpt lat="42.8639616" lon="-5.3663731">
        <ele>1426.4</ele>
        <time>2016-05-04T17:01:10Z</time>
      </trkpt>
      <trkpt lat="42.8639668" lon="-5.366164">
        <ele>1426.1</ele>
        <time>2016-05-04T17:01:12Z</time>
      </trkpt>
      <trkpt lat="42.8639756" lon="-5.3659546">
        <ele>1425.0</ele>
        <time>2016-05-04T17:01:14Z</time>
      </trkpt>
      <trkpt lat="42.863985" lon="-5.3657559">
        <ele>1422.2</ele>
        <time>2016-05-04T17:01:16Z</time>
      </trkpt>
      <trkpt lat="42.8639736" lon="-5.3655655">
        <ele>1420.6</ele>
        <time>2016-05-04T17:01:18Z</time>
      </trkpt>
      <trkpt lat="42.8639412" lon="-5.3653085">
        <ele>1418.9</ele>
        <time>2016-05-04T17:01:21Z</time>
      </trkpt>
      <trkpt lat="42.8639202" lon="-5.3651219">
        <ele>1417.5</ele>
        <time>2016-05-04T17:01:23Z</time>
      </trkpt>
      <trkpt lat="42.8638957" lon="-5.3649297">
        <ele>1414.8</ele>
        <time>2016-05-04T17:01:25Z</time>
      </trkpt>
      <trkpt lat="42.8638751" lon="-5.3646854">
        <ele>1410.8</ele>
        <time>2016-05-04T17:01:28Z</time>
      </trkpt>
      <trkpt lat="42.8638708" lon="-5.3644369">
        <ele>1408.1</ele>
        <time>2016-05-04T17:01:31Z</time>
      </trkpt>
      <trkpt lat="42.863875" lon="-5.364244">
        <ele>1405.6</ele>
        <time>2016-05-04T17:01:33Z</time>
      </trkpt>
      <trkpt lat="42.8638833" lon="-5.3639773">
        <ele>1402.0</ele>
        <time>2016-05-04T17:01:36Z</time>
      </trkpt>
      <trkpt lat="42.8638661" lon="-5.3637899">
        <ele>1399.6</ele>
        <time>2016-05-04T17:01:38Z</time>
      </trkpt>
      <trkpt lat="42.8638612" lon="-5.3636036">
        <ele>1396.6</ele>
        <time>2016-05-04T17:01:40Z</time>
      </trkpt>
      <trkpt lat="42.8638567" lon="-5.3633441">
        <ele>1392.3</ele>
        <time>2016-05-04T17:01:43Z</time>
      </trkpt>
      <trkpt lat="42.8638444" lon="-5.3631362">
        <ele>1389.4</ele>
        <time>2016-05-04T17:01:45Z</time>
      </trkpt>
      <trkpt lat="42.8638521" lon="-5.362939">
        <ele>1387.6</ele>
        <time>2016-05-04T17:01:47Z</time>
      </trkpt>
      <trkpt lat="42.8638834" lon="-5.3626497">
        <ele>1384.8</ele>
        <time>2016-05-04T17:01:50Z</time>
      </trkpt>
      <trkpt lat="42.8639157" lon="-5.3624324">
        <ele>1382.3</ele>
        <time>2016-05-04T17:01:52Z</time>
      </trkpt>
      <trkpt lat="42.8639619" lon="-5.3622597">
        <ele>1380.3</ele>
        <time>2016-05-04T17:01:54Z</time>
      </trkpt>
      <trkpt lat="42.8640294" lon="-5.362048">
        <ele>1378.4</ele>
        <time>2016-05-04T17:01:56Z</time>
      </trkpt>
      <trkpt lat="42.8641305" lon="-5.3618476">
        <ele>1377.5</ele>
        <time>2016-05-04T17:01:58Z</time>
      </trkpt>
      <trkpt lat="42.8642376" lon="-5.3616567">
        <ele>1376.5</ele>
        <time>2016-05-04T17:02:00Z</time>
      </trkpt>
      <trkpt lat="42.8643468" lon="-5.361467">
        <ele>1375.0</ele>
        <time>2016-05-04T17:02:02Z</time>
      </trkpt>
      <trkpt lat="42.8644581" lon="-5.3612684">
        <ele>1374.0</ele>
        <time>2016-05-04T17:02:04Z</time>
      </trkpt>
      <trkpt lat="42.8645861" lon="-5.3610747">
        <ele>1373.1</ele>
        <time>2016-05-04T17:02:06Z</time>
      </trkpt>
      <trkpt lat="42.8646824" lon="-5.3608671">
        <ele>1372.2</ele>
        <time>2016-05-04T17:02:08Z</time>
      </trkpt>
      <trkpt lat="42.8648001" lon="-5.3606898">
        <ele>1371.0</ele>
        <time>2016-05-04T17:02:10Z</time>
      </trkpt>
      <trkpt lat="42.8649475" lon="-5.3605136">
        <ele>1370.6</ele>
        <time>2016-05-04T17:02:12Z</time>
      </trkpt>
      <trkpt lat="42.8651055" lon="-5.3603462">
        <ele>1369.9</ele>
        <time>2016-05-04T17:02:14Z</time>
      </trkpt>
      <trkpt lat="42.8652213" lon="-5.3601697">
        <ele>1368.8</ele>
        <time>2016-05-04T17:02:16Z</time>
      </trkpt>
      <trkpt lat="42.8652619" lon="-5.3599652">
        <ele>1368.1</ele>
        <time>2016-05-04T17:02:18Z</time>
      </trkpt>
      <trkpt lat="42.8652572" lon="-5.3597108">
        <ele>1365.8</ele>
        <time>2016-05-04T17:02:21Z</time>
      </trkpt>
      <trkpt lat="42.8652031" lon="-5.3594675">
        <ele>1363.7</ele>
        <time>2016-05-04T17:02:24Z</time>
      </trkpt>
      <trkpt lat="42.8651374" lon="-5.3592358">
        <ele>1361.8</ele>
        <time>2016-05-04T17:02:27Z</time>
      </trkpt>
      <trkpt lat="42.8650541" lon="-5.3589958">
        <ele>1359.9</ele>
        <time>2016-05-04T17:02:30Z</time>
      </trkpt>
      <trkpt lat="42.864983" lon="-5.3587674">
        <ele>1359.3</ele>
        <time>2016-05-04T17:02:33Z</time>
      </trkpt>
      <trkpt lat="42.8649243" lon="-5.3585502">
        <ele>1358.6</ele>
        <time>2016-05-04T17:02:36Z</time>
      </trkpt>
      <trkpt lat="42.8648505" lon="-5.3583275">
        <ele>1358.0</ele>
        <time>2016-05-04T17:02:39Z</time>
      </trkpt>
      <trkpt lat="42.864756" lon="-5.3581206">
        <ele>1357.4</ele>
        <time>2016-05-04T17:02:42Z</time>
      </trkpt>
      <trkpt lat="42.8646403" lon="-5.3579607">
        <ele>1356.9</ele>
        <time>2016-05-04T17:02:44Z</time>
      </trkpt>
      <trkpt lat="42.864509" lon="-5.3578323">
        <ele>1356.5</ele>
        <time>2016-05-04T17:02:47Z</time>
      </trkpt>
      <trkpt lat="42.8643703" lon="-5.3577294">
        <ele>1355.6</ele>
        <time>2016-05-04T17:02:50Z</time>
      </trkpt>
      <trkpt lat="42.8642119" lon="-5.3576726">
        <ele>1353.8</ele>
        <time>2016-05-04T17:02:53Z</time>
      </trkpt>
      <trkpt lat="42.864099" lon="-5.3576647">
        <ele>1352.5</ele>
        <time>2016-05-04T17:02:55Z</time>
      </trkpt>
      <trkpt lat="42.8639866" lon="-5.3576851">
        <ele>1351.6</ele>
        <time>2016-05-04T17:02:57Z</time>
      </trkpt>
      <trkpt lat="42.8638146" lon="-5.3577226">
        <ele>1349.6</ele>
        <time>2016-05-04T17:03:00Z</time>
      </trkpt>
      <trkpt lat="42.863716" lon="-5.3577713">
        <ele>1346.6</ele>
        <time>2016-05-04T17:03:02Z</time>
      </trkpt>
      <trkpt lat="42.8635521" lon="-5.3578302">
        <ele>1345.8</ele>
        <time>2016-05-04T17:03:05Z</time>
      </trkpt>
      <trkpt lat="42.8633914" lon="-5.3579125">
        <ele>1345.0</ele>
        <time>2016-05-04T17:03:08Z</time>
      </trkpt>
      <trkpt lat="42.863279" lon="-5.3579561">
        <ele>1344.1</ele>
        <time>2016-05-04T17:03:10Z</time>
      </trkpt>
      <trkpt lat="42.8631175" lon="-5.3579811">
        <ele>1341.8</ele>
        <time>2016-05-04T17:03:13Z</time>
      </trkpt>
      <trkpt lat="42.8629367" lon="-5.3580362">
        <ele>1339.2</ele>
        <time>2016-05-04T17:03:16Z</time>
      </trkpt>
      <trkpt lat="42.8628325" lon="-5.3580499">
        <ele>1337.3</ele>
        <time>2016-05-04T17:03:18Z</time>
      </trkpt>
      <trkpt lat="42.8627316" lon="-5.3580456">
        <ele>1334.8</ele>
        <time>2016-05-04T17:03:20Z</time>
      </trkpt>
      <trkpt lat="42.862612" lon="-5.3580398">
        <ele>1329.2</ele>
        <time>2016-05-04T17:03:22Z</time>
      </trkpt>
      <trkpt lat="42.8625498" lon="-5.3580304">
        <ele>1329.2</ele>
        <time>2016-05-04T17:03:23Z</time>
      </trkpt>
      <trkpt lat="42.8624934" lon="-5.3580126">
        <ele>1329.2</ele>
        <time>2016-05-04T17:03:24Z</time>
      </trkpt>
      <trkpt lat="42.8624437" lon="-5.3579848">
        <ele>1329.2</ele>
        <time>2016-05-04T17:03:25Z</time>
      </trkpt>
      <trkpt lat="42.8623929" lon="-5.3579548">
        <ele>1329.2</ele>
        <time>2016-05-04T17:03:26Z</time>
      </trkpt>
      <trkpt lat="42.8622806" lon="-5.3578737">
        <ele>1327.1</ele>
        <time>2016-05-04T17:03:28Z</time>
      </trkpt>
      <trkpt lat="42.862138" lon="-5.3577582">
        <ele>1322.9</ele>
        <time>2016-05-04T17:03:31Z</time>
      </trkpt>
      <trkpt lat="42.8619779" lon="-5.3576307">
        <ele>1320.7</ele>
        <time>2016-05-04T17:03:34Z</time>
      </trkpt>
      <trkpt lat="42.8618275" lon="-5.3574757">
        <ele>1318.4</ele>
        <time>2016-05-04T17:03:37Z</time>
      </trkpt>
      <trkpt lat="42.8616815" lon="-5.3573437">
        <ele>1315.3</ele>
        <time>2016-05-04T17:03:40Z</time>
      </trkpt>
      <trkpt lat="42.8615847" lon="-5.3572993">
        <ele>1313.4</ele>
        <time>2016-05-04T17:03:42Z</time>
      </trkpt>
      <trkpt lat="42.8613144" lon="-5.3571342">
        <ele>1307.0</ele>
        <time>2016-05-04T17:03:47Z</time>
      </trkpt>
      <trkpt lat="42.861163" lon="-5.3570635">
        <ele>1305.1</ele>
        <time>2016-05-04T17:03:50Z</time>
      </trkpt>
      <trkpt lat="42.8610558" lon="-5.357027">
        <ele>1302.3</ele>
        <time>2016-05-04T17:03:52Z</time>
      </trkpt>
      <trkpt lat="42.8609391" lon="-5.3570317">
        <ele>1298.9</ele>
        <time>2016-05-04T17:03:54Z</time>
      </trkpt>
      <trkpt lat="42.8608267" lon="-5.3570996">
        <ele>1296.7</ele>
        <time>2016-05-04T17:03:56Z</time>
      </trkpt>
      <trkpt lat="42.8607318" lon="-5.3572283">
        <ele>1294.9</ele>
        <time>2016-05-04T17:03:58Z</time>
      </trkpt>
      <trkpt lat="42.8606509" lon="-5.3573958">
        <ele>1293.1</ele>
        <time>2016-05-04T17:04:00Z</time>
      </trkpt>
      <trkpt lat="42.8605742" lon="-5.357641">
        <ele>1290.4</ele>
        <time>2016-05-04T17:04:03Z</time>
      </trkpt>
      <trkpt lat="42.8605268" lon="-5.3578465">
        <ele>1288.0</ele>
        <time>2016-05-04T17:04:05Z</time>
      </trkpt>
      <trkpt lat="42.8604873" lon="-5.358072">
        <ele>1285.9</ele>
        <time>2016-05-04T17:04:07Z</time>
      </trkpt>
      <trkpt lat="42.860466" lon="-5.3583023">
        <ele>1283.8</ele>
        <time>2016-05-04T17:04:09Z</time>
      </trkpt>
      <trkpt lat="42.8604409" lon="-5.3585161">
        <ele>1282.0</ele>
        <time>2016-05-04T17:04:11Z</time>
      </trkpt>
      <trkpt lat="42.8604145" lon="-5.3587651">
        <ele>1280.4</ele>
        <time>2016-05-04T17:04:13Z</time>
      </trkpt>
      <trkpt lat="42.8604186" lon="-5.3590357">
        <ele>1278.6</ele>
        <time>2016-05-04T17:04:15Z</time>
      </trkpt>
      <trkpt lat="42.8604522" lon="-5.3592747">
        <ele>1276.9</ele>
        <time>2016-05-04T17:04:17Z</time>
      </trkpt>
      <trkpt lat="42.8604953" lon="-5.359514">
        <ele>1276.0</ele>
        <time>2016-05-04T17:04:19Z</time>
      </trkpt>
      <trkpt lat="42.8605499" lon="-5.359806">
        <ele>1275.1</ele>
        <time>2016-05-04T17:04:21Z</time>
      </trkpt>
      <trkpt lat="42.8606028" lon="-5.3600962">
        <ele>1272.7</ele>
        <time>2016-05-04T17:04:23Z</time>
      </trkpt>
      <trkpt lat="42.8606529" lon="-5.3603791">
        <ele>1270.4</ele>
        <time>2016-05-04T17:04:25Z</time>
      </trkpt>
      <trkpt lat="42.8607117" lon="-5.3606582">
        <ele>1267.7</ele>
        <time>2016-05-04T17:04:27Z</time>
      </trkpt>
      <trkpt lat="42.8607661" lon="-5.3609079">
        <ele>1265.6</ele>
        <time>2016-05-04T17:04:29Z</time>
      </trkpt>
      <trkpt lat="42.8608239" lon="-5.3611518">
        <ele>1264.4</ele>
        <time>2016-05-04T17:04:31Z</time>
      </trkpt>
      <trkpt lat="42.860897" lon="-5.3614349">
        <ele>1263.6</ele>
        <time>2016-05-04T17:04:33Z</time>
      </trkpt>
      <trkpt lat="42.8609648" lon="-5.3617421">
        <ele>1261.5</ele>
        <time>2016-05-04T17:04:35Z</time>
      </trkpt>
      <trkpt lat="42.8610327" lon="-5.3620433">
        <ele>1258.2</ele>
        <time>2016-05-04T17:04:37Z</time>
      </trkpt>
      <trkpt lat="42.8610864" lon="-5.3623231">
        <ele>1255.5</ele>
        <time>2016-05-04T17:04:39Z</time>
      </trkpt>
      <trkpt lat="42.8611524" lon="-5.3625853">
        <ele>1253.7</ele>
        <time>2016-05-04T17:04:41Z</time>
      </trkpt>
      <trkpt lat="42.8612363" lon="-5.3628545">
        <ele>1251.0</ele>
        <time>2016-05-04T17:04:43Z</time>
      </trkpt>
      <trkpt lat="42.8612904" lon="-5.3631371">
        <ele>1247.7</ele>
        <time>2016-05-04T17:04:45Z</time>
      </trkpt>
      <trkpt lat="42.8612972" lon="-5.3634083">
        <ele>1245.8</ele>
        <time>2016-05-04T17:04:47Z</time>
      </trkpt>
      <trkpt lat="42.861237" lon="-5.3636388">
        <ele>1245.1</ele>
        <time>2016-05-04T17:04:49Z</time>
      </trkpt>
      <trkpt lat="42.8611377" lon="-5.363768">
        <ele>1243.1</ele>
        <time>2016-05-04T17:04:51Z</time>
      </trkpt>
      <trkpt lat="42.8609591" lon="-5.3638341">
        <ele>1239.6</ele>
        <time>2016-05-04T17:04:54Z</time>
      </trkpt>
      <trkpt lat="42.8608631" lon="-5.363846">
        <ele>1238.8</ele>
        <time>2016-05-04T17:04:56Z</time>
      </trkpt>
      <trkpt lat="42.8607443" lon="-5.3638321">
        <ele>1238.4</ele>
        <time>2016-05-04T17:04:58Z</time>
      </trkpt>
      <trkpt lat="42.8606339" lon="-5.3637796">
        <ele>1235.0</ele>
        <time>2016-05-04T17:05:00Z</time>
      </trkpt>
      <trkpt lat="42.8605911" lon="-5.3637518">
        <ele>1235.0</ele>
        <time>2016-05-04T17:05:01Z</time>
      </trkpt>
      <trkpt lat="42.860551" lon="-5.3637207">
        <ele>1235.0</ele>
        <time>2016-05-04T17:05:02Z</time>
      </trkpt>
      <trkpt lat="42.8605063" lon="-5.3636796">
        <ele>1235.0</ele>
        <time>2016-05-04T17:05:03Z</time>
      </trkpt>
      <trkpt lat="42.860462" lon="-5.3636392">
        <ele>1235.0</ele>
        <time>2016-05-04T17:05:04Z</time>
      </trkpt>
      <trkpt lat="42.8603716" lon="-5.3634676">
        <ele>1232.5</ele>
        <time>2016-05-04T17:05:07Z</time>
      </trkpt>
      <trkpt lat="42.8602908" lon="-5.3632661">
        <ele>1231.5</ele>
        <time>2016-05-04T17:05:10Z</time>
      </trkpt>
      <trkpt lat="42.8601828" lon="-5.3630588">
        <ele>1230.5</ele>
        <time>2016-05-04T17:05:13Z</time>
      </trkpt>
      <trkpt lat="42.8601168" lon="-5.3628586">
        <ele>1228.5</ele>
        <time>2016-05-04T17:05:16Z</time>
      </trkpt>
      <trkpt lat="42.860093" lon="-5.3626644">
        <ele>1227.3</ele>
        <time>2016-05-04T17:05:18Z</time>
      </trkpt>
      <trkpt lat="42.860069" lon="-5.3624414">
        <ele>1225.9</ele>
        <time>2016-05-04T17:05:21Z</time>
      </trkpt>
      <trkpt lat="42.8600642" lon="-5.3621692">
        <ele>1223.7</ele>
        <time>2016-05-04T17:05:24Z</time>
      </trkpt>
      <trkpt lat="42.8600306" lon="-5.3619798">
        <ele>1222.1</ele>
        <time>2016-05-04T17:05:26Z</time>
      </trkpt>
      <trkpt lat="42.8599788" lon="-5.3617959">
        <ele>1219.8</ele>
        <time>2016-05-04T17:05:29Z</time>
      </trkpt>
      <trkpt lat="42.8598733" lon="-5.3616148">
        <ele>1218.6</ele>
        <time>2016-05-04T17:05:32Z</time>
      </trkpt>
      <trkpt lat="42.8597286" lon="-5.3615912">
        <ele>1214.5</ele>
        <time>2016-05-04T17:05:35Z</time>
      </trkpt>
      <trkpt lat="42.8595809" lon="-5.3616502">
        <ele>1210.5</ele>
        <time>2016-05-04T17:05:38Z</time>
      </trkpt>
      <trkpt lat="42.8594834" lon="-5.3617403">
        <ele>1207.1</ele>
        <time>2016-05-04T17:05:40Z</time>
      </trkpt>
      <trkpt lat="42.8593358" lon="-5.3618813">
        <ele>1201.8</ele>
        <time>2016-05-04T17:05:43Z</time>
      </trkpt>
      <trkpt lat="42.8591966" lon="-5.3619415">
        <ele>1198.6</ele>
        <time>2016-05-04T17:05:46Z</time>
      </trkpt>
      <trkpt lat="42.8591016" lon="-5.3619523">
        <ele>1196.1</ele>
        <time>2016-05-04T17:05:48Z</time>
      </trkpt>
      <trkpt lat="42.8590143" lon="-5.3619484">
        <ele>1189.0</ele>
        <time>2016-05-04T17:05:50Z</time>
      </trkpt>
      <trkpt lat="42.8589417" lon="-5.3618835">
        <ele>1189.0</ele>
        <time>2016-05-04T17:05:52Z</time>
      </trkpt>
      <trkpt lat="42.8588752" lon="-5.3618192">
        <ele>1189.0</ele>
        <time>2016-05-04T17:05:54Z</time>
      </trkpt>
      <trkpt lat="42.8587567" lon="-5.3617166">
        <ele>1182.8</ele>
        <time>2016-05-04T17:05:57Z</time>
      </trkpt>
      <trkpt lat="42.8586172" lon="-5.3616016">
        <ele>1180.3</ele>
        <time>2016-05-04T17:06:00Z</time>
      </trkpt>
      <trkpt lat="42.8585301" lon="-5.361453">
        <ele>1175.4</ele>
        <time>2016-05-04T17:06:04Z</time>
      </trkpt>
      <trkpt lat="42.8584975" lon="-5.361235">
        <ele>1172.3</ele>
        <time>2016-05-04T17:06:07Z</time>
      </trkpt>
      <trkpt lat="42.858503" lon="-5.361036">
        <ele>1169.5</ele>
        <time>2016-05-04T17:06:09Z</time>
      </trkpt>
      <trkpt lat="42.8585739" lon="-5.3608643">
        <ele>1167.2</ele>
        <time>2016-05-04T17:06:11Z</time>
      </trkpt>
      <trkpt lat="42.8586852" lon="-5.3607165">
        <ele>1164.8</ele>
        <time>2016-05-04T17:06:13Z</time>
      </trkpt>
      <trkpt lat="42.8588184" lon="-5.3605712">
        <ele>1162.9</ele>
        <time>2016-05-04T17:06:15Z</time>
      </trkpt>
      <trkpt lat="42.8589822" lon="-5.3604423">
        <ele>1161.5</ele>
        <time>2016-05-04T17:06:17Z</time>
      </trkpt>
      <trkpt lat="42.85916" lon="-5.3603359">
        <ele>1158.7</ele>
        <time>2016-05-04T17:06:19Z</time>
      </trkpt>
      <trkpt lat="42.859365" lon="-5.3602406">
        <ele>1156.6</ele>
        <time>2016-05-04T17:06:21Z</time>
      </trkpt>
      <trkpt lat="42.859471" lon="-5.3601909">
        <ele>1151.7</ele>
        <time>2016-05-04T17:06:22Z</time>
      </trkpt>
      <trkpt lat="42.8595693" lon="-5.3601377">
        <ele>1151.7</ele>
        <time>2016-05-04T17:06:23Z</time>
      </trkpt>
      <trkpt lat="42.8596567" lon="-5.3600831">
        <ele>1151.7</ele>
        <time>2016-05-04T17:06:24Z</time>
      </trkpt>
      <trkpt lat="42.8597391" lon="-5.3600266">
        <ele>1151.7</ele>
        <time>2016-05-04T17:06:25Z</time>
      </trkpt>
      <trkpt lat="42.8598123" lon="-5.3599712">
        <ele>1151.7</ele>
        <time>2016-05-04T17:06:26Z</time>
      </trkpt>
      <trkpt lat="42.8599449" lon="-5.3598615">
        <ele>1150.1</ele>
        <time>2016-05-04T17:06:28Z</time>
      </trkpt>
      <trkpt lat="42.8600463" lon="-5.3597022">
        <ele>1147.6</ele>
        <time>2016-05-04T17:06:30Z</time>
      </trkpt>
      <trkpt lat="42.8600103" lon="-5.3595156">
        <ele>1145.9</ele>
        <time>2016-05-04T17:06:33Z</time>
      </trkpt>
      <trkpt lat="42.8598494" lon="-5.3595401">
        <ele>1144.8</ele>
        <time>2016-05-04T17:06:36Z</time>
      </trkpt>
      <trkpt lat="42.8597317" lon="-5.3596916">
        <ele>1143.4</ele>
        <time>2016-05-04T17:06:38Z</time>
      </trkpt>
      <trkpt lat="42.8596495" lon="-5.359908">
        <ele>1141.3</ele>
        <time>2016-05-04T17:06:40Z</time>
      </trkpt>
      <trkpt lat="42.8595603" lon="-5.3600915">
        <ele>1140.2</ele>
        <time>2016-05-04T17:06:42Z</time>
      </trkpt>
      <trkpt lat="42.8594062" lon="-5.3599143">
        <ele>1138.3</ele>
        <time>2016-05-04T17:06:45Z</time>
      </trkpt>
      <trkpt lat="42.8594922" lon="-5.3596856">
        <ele>1135.6</ele>
        <time>2016-05-04T17:06:47Z</time>
      </trkpt>
      <trkpt lat="42.8596322" lon="-5.3595528">
        <ele>1133.1</ele>
        <time>2016-05-04T17:06:49Z</time>
      </trkpt>
      <trkpt lat="42.8597742" lon="-5.3594405">
        <ele>1129.3</ele>
        <time>2016-05-04T17:06:51Z</time>
      </trkpt>
      <trkpt lat="42.8598899" lon="-5.3592867">
        <ele>1128.2</ele>
        <time>2016-05-04T17:06:53Z</time>
      </trkpt>
      <trkpt lat="42.8599724" lon="-5.3591126">
        <ele>1127.0</ele>
        <time>2016-05-04T17:06:55Z</time>
      </trkpt>
      <trkpt lat="42.8598345" lon="-5.3590797">
        <ele>1126.8</ele>
        <time>2016-05-04T17:06:56Z</time>
      </trkpt>
      <trkpt lat="42.8596725" lon="-5.3590348">
        <ele>1126.5</ele>
        <time>2016-05-04T17:06:58Z</time>
      </trkpt>
      <trkpt lat="42.8595817" lon="-5.3590804">
        <ele>1126.0</ele>
        <time>2016-05-04T17:06:59Z</time>
      </trkpt>
      <trkpt lat="42.8594376" lon="-5.3590626">
        <ele>1122.8</ele>
        <time>2016-05-04T17:07:02Z</time>
      </trkpt>
      <trkpt lat="42.8594391" lon="-5.3588763">
        <ele>1120.5</ele>
        <time>2016-05-04T17:07:04Z</time>
      </trkpt>
      <trkpt lat="42.8595151" lon="-5.3586375">
        <ele>1117.0</ele>
        <time>2016-05-04T17:07:07Z</time>
      </trkpt>
      <trkpt lat="42.8592501" lon="-5.3586235">
        <ele>1112.6</ele>
        <time>2016-05-04T17:07:10Z</time>
      </trkpt>
      <trkpt lat="42.859146" lon="-5.3586475">
        <ele>1111.5</ele>
        <time>2016-05-04T17:07:11Z</time>
      </trkpt>
      <trkpt lat="42.8590305" lon="-5.3585442">
        <ele>1108.7</ele>
        <time>2016-05-04T17:07:14Z</time>
      </trkpt>
      <trkpt lat="42.8589771" lon="-5.358294">
        <ele>1101.4</ele>
        <time>2016-05-04T17:07:17Z</time>
      </trkpt>
      <trkpt lat="42.8588348" lon="-5.3581952">
        <ele>1099.8</ele>
        <time>2016-05-04T17:07:19Z</time>
      </trkpt>
      <trkpt lat="42.8587151" lon="-5.3581356">
        <ele>1099.1</ele>
        <time>2016-05-04T17:07:21Z</time>
      </trkpt>
      <trkpt lat="42.8586096" lon="-5.3580665">
        <ele>1097.5</ele>
        <time>2016-05-04T17:07:23Z</time>
      </trkpt>
      <trkpt lat="42.85852" lon="-5.3580066">
        <ele>1095.4</ele>
        <time>2016-05-04T17:07:25Z</time>
      </trkpt>
      <trkpt lat="42.8583858" lon="-5.3579619">
        <ele>1084.5</ele>
        <time>2016-05-04T17:07:31Z</time>
      </trkpt>
      <trkpt lat="42.8583147" lon="-5.3578984">
        <ele>1058.8</ele>
        <time>2016-05-04T17:07:54Z</time>
      </trkpt>
      <trkpt lat="42.8582766" lon="-5.3579396">
        <ele>1049.6</ele>
        <time>2016-05-04T17:09:28Z</time>
      </trkpt>
      <trkpt lat="42.8582315" lon="-5.3579104">
        <ele>1049.4</ele>
        <time>2016-05-04T17:09:32Z</time>
      </trkpt>
      <trkpt lat="42.858195" lon="-5.3578653">
        <ele>1049.3</ele>
        <time>2016-05-04T17:09:36Z</time>
      </trkpt>
      <trkpt lat="42.8581484" lon="-5.3578262">
        <ele>1049.3</ele>
        <time>2016-05-04T17:09:40Z</time>
      </trkpt>
      <trkpt lat="42.8581107" lon="-5.3577348">
        <ele>1049.2</ele>
        <time>2016-05-04T17:09:46Z</time>
      </trkpt>
      <trkpt lat="42.8581004" lon="-5.3577964">
        <ele>1047.4</ele>
        <time>2016-05-04T17:10:25Z</time>
      </trkpt>
      <trkpt lat="42.8580957" lon="-5.3577284">
        <ele>1047.2</ele>
        <time>2016-05-04T17:11:37Z</time>
      </trkpt>
      <trkpt lat="42.8581124" lon="-5.3577935">
        <ele>1047.5</ele>
        <time>2016-05-04T17:11:50Z</time>
      </trkpt>
      <trkpt lat="42.858115" lon="-5.3578413">
        <ele>1049.2</ele>
        <time>2016-05-04T17:13:14Z</time>
      </trkpt>
      <trkpt lat="42.858115" lon="-5.3578413">
        <time>2016-05-04T17:13:14Z</time>
      </trkpt>
    </trkseg>
    <trkseg>
      <trkpt lat="42.858115" lon="-5.3578413">
        <time>2016-05-04T17:13:15Z</time>
      </trkpt>
    </trkseg>
  </trk>
</gpx>